Time;durP1;ratioP1;P1;durP2;ratioP2;P2;SDS_P1;SDS_P2;PMS_P1;PMS_P2;Temp;Humidity;BMP_temperature;BMP_pressure;BME280_temperature;BME280_humidity;BME280_pressure;Samples;Min_cycle;Max_cycle;Signal;HPM_P1;HPM_P2
2023/01/30 00:01:22;;;;;;;7.05;3.50;;;7.90;1.00;;;;;;5021798;28;20037;-67
2023/01/30 00:03:48;;;;;;;11.30;3.88;;;;;;;;;;5010522;28;20396;-67
2023/01/30 00:06:15;;;;;;;13.10;3.97;;;;;;;;;;5028080;28;20121;-67
2023/01/30 00:08:41;;;;;;;12.15;4.07;;;;;;;;;;5029675;28;20037;-67
2023/01/30 00:11:08;;;;;;;13.20;4.15;;;;;;;;;;5023797;28;20040;-67
2023/01/30 00:13:34;;;;;;;11.75;3.70;;;;;;;;;;5022086;28;20041;-67
2023/01/30 00:16:01;;;;;;;10.48;4.00;;;;;;;;;;5034418;28;20056;-68
2023/01/30 00:18:27;;;;;;;11.20;3.92;;;;;;;;;;5028404;28;20057;-68
2023/01/30 00:21:00;;;;;;;13.38;4.78;;;7.30;1.00;;;;;;5038008;28;20037;-67
2023/01/30 00:23:27;;;;;;;12.95;4.22;;;;;;;;;;5032307;28;20495;-67
2023/01/30 00:25:53;;;;;;;9.98;4.25;;;7.20;1.00;;;;;;5030300;28;20037;-66
2023/01/30 00:28:19;;;;;;;14.65;5.53;;;7.00;1.00;;;;;;5028614;28;20403;-67
2023/01/30 00:30:48;;;;;;;16.30;4.65;;;;;;;;;;5019034;28;20045;-66
2023/01/30 00:33:14;;;;;;;19.23;5.78;;;7.00;1.00;;;;;;5024745;28;20512;-65
2023/01/30 00:35:44;;;;;;;12.40;5.03;;;;;;;;;;5030025;28;20049;-64
2023/01/30 00:38:10;;;;;;;15.73;5.35;;;;;;;;;;5031882;28;20045;-65
2023/01/30 00:40:36;;;;;;;15.00;4.80;;;;;;;;;;5032508;28;20138;-65
2023/01/30 00:48:32;;;;;;;14.38;6.45;;;7.10;1.00;;;;;;5029696;28;20041;-66
2023/01/30 00:50:58;;;;;;;20.15;4.63;;;;;;;;;;5022089;28;20057;-66
2023/01/30 00:53:24;;;;;;;18.77;6.35;;;7.00;1.00;;;;;;5026084;28;20038;-65
2023/01/30 00:55:50;;;;;;;11.15;4.22;;;;;;;;;;5028666;28;20053;-65
2023/01/30 00:58:16;;;;;;;12.57;4.53;;;7.00;1.00;;;;;;5028005;28;20454;-66
2023/01/30 01:00:42;;;;;;;18.08;6.60;;;;;;;;;;5036020;28;20084;-66
2023/01/30 01:03:08;;;;;;;16.20;6.43;;;;;;;;;;5026299;28;20120;-65
2023/01/30 01:05:34;;;;;;;16.95;6.63;;;;;;;;;;5029818;28;20049;-65
2023/01/30 01:08:01;;;;;;;13.02;5.45;;;7.10;1.00;;;;;;5032715;28;20603;-65
2023/01/30 01:10:26;;;;;;;13.35;5.28;;;7.10;1.00;;;;;;5027779;28;20037;-65
2023/01/30 01:12:53;;;;;;;13.02;4.63;;;;;;;;;;5023925;28;20095;-65
2023/01/30 01:15:19;;;;;;;18.35;6.30;;;;;;;;;;5021306;28;20498;-65
2023/01/30 01:17:45;;;;;;;24.05;6.88;;;7.10;1.00;;;;;;5022066;28;20080;-65
2023/01/30 01:20:12;;;;;;;13.50;5.20;;;;;;;;;;5024002;28;20395;-65
2023/01/30 01:22:38;;;;;;;13.50;5.63;;;7.00;1.00;;;;;;5028322;28;20124;-65
2023/01/30 01:25:04;;;;;;;15.07;5.28;;;6.90;1.00;;;;;;5029315;28;20510;-65
2023/01/30 01:27:30;;;;;;;14.02;5.63;;;7.00;1.00;;;;;;5028038;28;20038;-64
2023/01/30 01:29:56;;;;;;;15.85;5.00;;;7.10;1.00;;;;;;5030641;28;20033;-65
2023/01/30 01:32:22;;;;;;;22.70;6.32;;;;;;;;;;5036092;28;20033;-65
2023/01/30 01:34:48;;;;;;;19.38;7.78;;;7.00;1.00;;;;;;5034610;28;20041;-65
2023/01/30 01:37:14;;;;;;;14.27;5.82;;;7.10;1.00;;;;;;5031462;28;20037;-65
2023/01/30 01:42:26;;;;;;;26.38;6.65;;;;;;;;;;5028392;28;20076;-65
2023/01/30 01:45:10;;;;;;;21.08;7.07;;;;;;;;;;5033804;28;20108;-65
2023/01/30 01:47:38;;;;;;;16.15;4.47;;;;;;;;;;5030384;28;20395;-65
2023/01/30 01:50:04;;;;;;;24.77;5.88;;;;;;;;;;5029371;28;20038;-66
2023/01/30 01:52:31;;;;;;;17.42;5.60;;;;;;;;;;5028125;28;20068;-66
2023/01/30 01:55:00;;;;;;;21.20;6.53;;;;;;;;;;5032278;28;20033;-65
2023/01/30 01:57:33;;;;;;;18.10;5.63;;;7.30;1.00;;;;;;5030591;28;20034;-65
2023/01/30 02:00:12;;;;;;;16.40;6.55;;;7.30;1.00;;;;;;5029337;28;20065;-65
2023/01/30 02:02:40;;;;;;;20.73;6.63;;;;;;;;;;5028026;28;20044;-66
2023/01/30 02:05:06;;;;;;;25.80;6.00;;;;;;;;;;5018822;28;20048;-65
2023/01/30 02:07:37;;;;;;;22.20;5.28;;;;;;;;;;5030263;28;20044;-65
2023/01/30 02:10:04;;;;;;;21.88;5.88;;;;;;;;;;5033355;28;20037;-65
2023/01/30 02:12:30;;;;;;;18.38;6.35;;;;;;;;;;5027015;28;20049;-65
2023/01/30 02:14:57;;;;;;;17.30;6.18;;;;;;;;;;5029070;28;20041;-65
2023/01/30 02:17:24;;;;;;;18.17;6.30;;;;;;;;;;5027225;28;20037;-65
2023/01/30 02:20:12;;;;;;;24.13;7.90;;;;;;;;;;5033104;28;20052;-65
2023/01/30 02:23:04;;;;;;;22.10;6.85;;;7.10;1.00;;;;;;5027453;28;20079;-65
2023/01/30 02:25:59;;;;;;;24.67;5.45;;;;;;;;;;5046076;28;20077;-65
2023/01/30 02:28:43;;;;;;;27.25;7.07;;;;;;;;;;5028769;28;20037;-65
2023/01/30 02:31:09;;;;;;;14.90;4.85;;;7.30;1.00;;;;;;5028956;28;20045;-65
2023/01/30 02:34:01;;;;;;;17.13;6.00;;;6.70;1.00;;;;;;5026616;28;20045;-65
2023/01/30 02:36:40;;;;;;;18.65;6.32;;;7.40;1.00;;;;;;5026042;28;20410;-65
2023/01/30 02:39:24;;;;;;;14.15;4.75;;;;;;;;;;5029083;28;20395;-65
2023/01/30 02:41:50;;;;;;;18.60;5.97;;;;;;;;;;5027861;28;20113;-64
2023/01/30 02:44:46;;;;;;;16.98;6.05;;;;;;;;;;5041113;28;20112;-65
2023/01/30 02:47:11;;;;;;;;;;;;;;;;;;5012626;28;20092;-66
2023/01/30 02:49:40;;;;;;;21.63;6.95;;;;;;;;;;5025776;28;19921;-66
2023/01/30 02:52:08;;;;;;;16.55;4.72;;;;;;;;;;5030882;28;20594;-66
2023/01/30 02:54:34;;;;;;;18.05;5.32;;;;;;;;;;5042375;28;20049;-66
2023/01/30 02:57:00;;;;;;;16.25;5.43;;;;;;;;;;5037911;28;20041;-66
2023/01/30 02:59:37;;;;;;;19.38;6.75;;;;;;;;;;5030156;28;20038;-66
2023/01/30 03:02:35;;;;;;;15.23;4.55;;;6.60;1.00;;;;;;5027065;28;20048;-66
2023/01/30 03:05:01;;;;;;;12.95;3.75;;;;;;;;;;5038636;28;20040;-65
2023/01/30 03:07:27;;;;;;;16.27;6.05;;;;;;;;;;5032376;28;20045;-66
2023/01/30 03:10:12;;;;;;;18.23;5.18;;;6.60;1.00;;;;;;5035651;28;20040;-66
2023/01/30 03:12:38;;;;;;;15.05;4.55;;;;;;;;;;5038150;28;20510;-65
2023/01/30 03:15:08;;;;;;;18.50;5.28;;;;;;;;;;5032062;28;20042;-66
2023/01/30 03:17:34;;;;;;;13.73;4.20;;;;;;;;;;5042270;28;20051;-66
2023/01/30 03:20:00;;;;;;;22.70;4.80;;;6.80;1.00;;;;;;5032107;28;20033;-67
2023/01/30 03:22:26;;;;;;;12.73;3.83;;;;;;;;;;5030978;28;20049;-65
2023/01/30 03:24:53;;;;;;;21.73;4.95;;;;;;;;;;5030849;28;20049;-66
2023/01/30 03:27:19;;;;;;;20.98;5.22;;;;;;;;;;5026654;28;20045;-66
2023/01/30 03:29:45;;;;;;;17.63;5.13;;;6.90;1.00;;;;;;5036441;28;20065;-66
2023/01/30 03:32:11;;;;;;;13.77;3.95;;;;;;;;;;5031614;28;20084;-65
2023/01/30 03:34:37;;;;;;;14.85;4.43;;;;;;;;;;5037465;28;20139;-65
2023/01/30 03:37:04;;;;;;;10.82;4.05;;;;;;;;;;5021707;28;20045;-66
2023/01/30 03:39:29;;;;;;;14.77;4.03;;;6.90;1.00;;;;;;5031021;28;20132;-66
2023/01/30 03:41:55;;;;;;;18.70;4.78;;;7.10;1.00;;;;;;5030724;28;20120;-65
2023/01/30 03:44:21;;;;;;;24.40;4.25;;;;;;;;;;5030893;28;20029;-65
2023/01/30 03:46:47;;;;;;;17.02;5.00;;;;;;;;;;5023122;28;20048;-66
2023/01/30 03:49:13;;;;;;;20.27;4.15;;;;;;;;;;5032179;28;20045;-66
2023/01/30 03:51:39;;;;;;;16.88;4.35;;;;;;;;;;5030512;28;20049;-66
2023/01/30 03:54:05;;;;;;;25.73;5.90;;;;;;;;;;5037910;28;20041;-66
2023/01/30 03:56:31;;;;;;;20.63;5.30;;;;;;;;;;5037368;28;20041;-66
2023/01/30 03:58:57;;;;;;;19.33;3.97;;;;;;;;;;5029271;28;20076;-66
2023/01/30 04:01:23;;;;;;;18.45;4.95;;;6.80;1.00;;;;;;5022446;28;20481;-66
2023/01/30 04:03:49;;;;;;;25.83;6.60;;;;;;;;;;5038785;28;20116;-66
2023/01/30 04:06:15;;;;;;;17.65;3.65;;;6.50;1.00;;;;;;5030754;28;20113;-66
2023/01/30 04:08:40;;;;;;;8.88;2.65;;;6.50;1.00;;;;;;5030739;28;20144;-66
2023/01/30 04:11:06;;;;;;;19.38;4.35;;;;;;;;;;5026344;28;20103;-66
2023/01/30 04:13:32;;;;;;;16.63;4.20;;;;;;;;;;5024333;28;20048;-66
2023/01/30 04:16:23;;;;;;;17.33;3.70;;;6.90;1.00;;;;;;5030179;28;20083;-66
2023/01/30 04:18:49;;;;;;;20.70;4.53;;;;;;;;;;5023129;28;20048;-66
2023/01/30 04:21:15;;;;;;;28.25;6.15;;;;;;;;;;5030301;28;20132;-66
2023/01/30 04:23:41;;;;;;;22.20;4.05;;;;;;;;;;5037922;28;21520;-66
2023/01/30 04:26:08;;;;;;;19.70;4.63;;;6.80;1.00;;;;;;5028672;28;20116;-66
2023/01/30 04:28:34;;;;;;;22.50;5.03;;;;;;;;;;5028818;28;20040;-66
2023/01/30 04:31:00;;;;;;;20.10;4.60;;;;;;;;;;5029636;28;20376;-66
2023/01/30 04:33:26;;;;;;;21.08;5.45;;;;;;;;;;5026679;28;20044;-66
2023/01/30 04:35:56;;;;;;;19.00;5.07;;;;;;;;;;5030467;28;20041;-66
2023/01/30 04:38:22;;;;;;;16.70;4.10;;;;;;;;;;5031551;28;20056;-66
2023/01/30 04:40:49;;;;;;;20.50;4.30;;;;;;;;;;5021273;28;20045;-66
2023/01/30 04:43:15;;;;;;;28.55;5.82;;;6.30;1.00;;;;;;5031531;28;20040;-66
2023/01/30 04:45:44;;;;;;;19.88;4.35;;;;;;;;;;5025443;28;20495;-66
2023/01/30 04:48:10;;;;;;;23.00;5.15;;;;;;;;;;5017816;28;20188;-66
2023/01/30 04:50:36;;;;;;;13.98;4.32;;;;;;;;;;5026427;28;20037;-66
2023/01/30 04:53:03;;;;;;;27.02;5.82;;;;;;;;;;5033503;28;20033;-66
2023/01/30 04:55:29;;;;;;;20.75;5.10;;;;;;;;;;5035414;28;20116;-66
2023/01/30 04:57:55;;;;;;;24.15;5.07;;;;;;;;;;5029031;28;20044;-66
2023/01/30 05:00:21;;;;;;;16.48;3.38;;;;;;;;;;5029618;28;20076;-66
2023/01/30 05:02:47;;;;;;;25.45;4.88;;;;;;;;;;5028937;28;20037;-66
2023/01/30 05:05:13;;;;;;;22.08;4.93;;;;;;;;;;5029776;28;20037;-66
2023/01/30 05:07:39;;;;;;;18.95;5.00;;;;;;;;;;5027976;28;20041;-66
2023/01/30 05:10:06;;;;;;;16.35;4.63;;;;;;;;;;5029184;28;20368;-66
2023/01/30 05:12:32;;;;;;;19.08;3.50;;;;;;;;;;5030211;28;20041;-66
2023/01/30 05:14:58;;;;;;;21.33;3.58;;;;;;;;;;5029711;28;20043;-66
2023/01/30 05:17:24;;;;;;;24.77;4.85;;;;;;;;;;5030343;28;20053;-66
2023/01/30 05:19:50;;;;;;;11.43;2.88;;;;;;;;;;5045455;28;20045;-66
2023/01/30 05:22:16;;;;;;;25.80;4.95;;;;;;;;;;5015714;28;20044;-66
2023/01/30 05:24:42;;;;;;;12.80;3.22;;;;;;;;;;5028671;28;20071;-67
2023/01/30 05:27:09;;;;;;;20.65;4.18;;;;;;;;;;5010630;28;20391;-66
2023/01/30 05:29:35;;;;;;;23.85;5.40;;;;;;;;;;5014611;28;20062;-66
2023/01/30 05:32:00;;;;;;;19.45;4.50;;;6.20;1.00;;;;;;5014972;28;20038;-66
2023/01/30 05:34:26;;;;;;;16.20;3.72;;;;;;;;;;5024546;28;20048;-67
2023/01/30 05:36:52;;;;;;;29.02;5.63;;;;;;;;;;5028134;28;20037;-67
2023/01/30 05:39:18;;;;;;;17.60;4.85;;;6.20;1.00;;;;;;5029583;28;20102;-67
2023/01/30 05:41:44;;;;;;;16.52;4.28;;;;;;;;;;5026670;28;20414;-67
2023/01/30 05:44:10;;;;;;;12.48;3.35;;;;;;;;;;5023891;28;20098;-66
2023/01/30 05:46:36;;;;;;;16.20;3.65;;;;;;;;;;5021977;28;20487;-66
2023/01/30 05:49:03;;;;;;;25.15;5.97;;;;;;;;;;5027789;28;20033;-66
2023/01/30 05:51:29;;;;;;;18.02;3.10;;;;;;;;;;5029676;28;20053;-67
2023/01/30 05:53:55;;;;;;;19.30;4.22;;;;;;;;;;5028820;28;20091;-67
2023/01/30 05:56:22;;;;;;;31.02;4.38;;;6.60;1.00;;;;;;5014778;28;20045;-66
2023/01/30 05:58:52;;;;;;;17.35;4.45;;;6.60;1.00;;;;;;5022045;28;20491;-67
2023/01/30 06:01:19;;;;;;;18.02;4.55;;;;;;;;;;5025242;28;20041;-67
2023/01/30 06:03:45;;;;;;;15.35;3.15;;;;;;;;;;5027057;28;20093;-67
2023/01/30 06:06:12;;;;;;;19.92;4.03;;;7.00;1.00;;;;;;5023757;28;20034;-67
2023/01/30 06:08:38;;;;;;;17.80;3.83;;;6.80;1.00;;;;;;5017545;28;20051;-67
2023/01/30 06:11:05;;;;;;;21.27;3.80;;;;;;;;;;5014745;28;20097;-67
2023/01/30 06:13:31;;;;;;;20.08;3.83;;;;;;;;;;5028602;28;20121;-66
2023/01/30 06:15:57;;;;;;;19.20;4.32;;;;;;;;;;5013089;28;20201;-66
2023/01/30 06:18:23;;;;;;;11.98;3.88;;;6.70;1.00;;;;;;5031716;28;20116;-66
2023/01/30 06:20:52;;;;;;;17.08;3.50;;;;;;;;;;5030160;28;20124;-66
2023/01/30 06:23:19;;;;;;;25.42;4.88;;;6.80;1.00;;;;;;5027295;28;20073;-66
2023/01/30 06:25:46;;;;;;;16.35;4.65;;;;;;;;;;5040920;28;20047;-67
2023/01/30 06:28:12;;;;;;;19.63;5.63;;;;;;;;;;5018611;28;20042;-67
2023/01/30 06:30:38;;;;;;;16.40;4.47;;;;;;;;;;5032446;28;20409;-67
2023/01/30 06:33:04;;;;;;;24.20;5.43;;;;;;;;;;5024566;28;20033;-67
2023/01/30 06:35:30;;;;;;;21.42;5.95;;;;;;;;;;5024014;28;20061;-66
2023/01/30 06:37:56;;;;;;;20.98;4.43;;;6.70;1.00;;;;;;5020600;28;20030;-67
2023/01/30 06:40:22;;;;;;;21.60;5.00;;;;;;;;;;5028661;28;20040;-67
2023/01/30 06:42:48;;;;;;;19.92;5.15;;;6.50;1.00;;;;;;5029169;28;20060;-67
2023/01/30 06:45:15;;;;;;;22.20;5.10;;;;;;;;;;5017231;28;20406;-66
2023/01/30 06:47:48;;;;;;;15.07;3.85;;;7.00;1.00;;;;;;5016059;28;20034;-67
2023/01/30 06:50:15;;;;;;;15.70;4.07;;;;;;;;;;5022871;28;20038;-66
2023/01/30 06:52:46;;;;;;;19.65;6.13;;;7.20;1.00;;;;;;5020912;28;20036;-69
2023/01/30 06:55:14;;;;;;;15.15;3.38;;;;;;;;;;5015609;28;20038;-67
2023/01/30 06:57:40;;;;;;;19.55;4.15;;;;;;;;;;5021217;28;20125;-67
2023/01/30 07:00:09;;;;;;;22.60;6.22;;;6.90;1.00;;;;;;5032907;28;20033;-67
2023/01/30 07:02:35;;;;;;;33.13;7.05;;;6.80;1.00;;;;;;5038256;28;20056;-68
2023/01/30 07:05:02;;;;;;;17.20;4.57;;;6.90;1.00;;;;;;5030708;28;20037;-68
2023/01/30 07:07:29;;;;;;;36.72;6.28;;;;;;;;;;5032126;28;20060;-68
2023/01/30 07:09:55;;;;;;;19.27;4.03;;;;;;;;;;5015870;28;20120;-67
2023/01/30 07:12:21;;;;;;;21.67;4.65;;;;;;;;;;5026556;28;20602;-68
2023/01/30 07:14:47;;;;;;;21.20;4.93;;;;;;;;;;5023834;28;20405;-66
2023/01/30 07:17:13;;;;;;;21.35;3.88;;;;;;;;;;5031495;28;20509;-66
2023/01/30 07:19:39;;;;;;;15.07;3.55;;;;;;;;;;5028794;28;20557;-67
2023/01/30 07:22:05;;;;;;;16.17;4.05;;;;;;;;;;5028862;28;20041;-67
2023/01/30 07:24:31;;;;;;;17.90;4.22;;;;;;;;;;5031624;28;20513;-67
2023/01/30 07:26:57;;;;;;;13.38;3.08;;;6.80;1.00;;;;;;5028375;28;20030;-67
2023/01/30 07:29:23;;;;;;;9.50;3.22;;;6.90;1.00;;;;;;5020709;28;20034;-65
2023/01/30 07:31:50;;;;;;;20.80;4.07;;;7.00;1.00;;;;;;5030387;28;20427;-67
2023/01/30 07:34:15;;;;;;;12.15;2.90;;;6.90;1.00;;;;;;5027222;28;20033;-69
2023/01/30 07:36:41;;;;;;;20.80;5.13;;;7.00;1.00;;;;;;5026795;28;20037;-67
2023/01/30 07:39:08;;;;;;;18.42;3.38;;;;;;;;;;5030495;28;20155;-67
2023/01/30 07:41:34;;;;;;;23.13;3.88;;;;;;;;;;5021108;28;20035;-67
2023/01/30 07:44:00;;;;;;;27.95;5.65;;;;;;;;;;5031593;28;20116;-67
2023/01/30 07:46:28;;;;;;;17.65;4.35;;;7.10;1.00;;;;;;5025567;28;20048;-68
2023/01/30 07:48:54;;;;;;;18.98;4.53;;;7.00;1.00;;;;;;5029819;28;20092;-69
2023/01/30 07:51:20;;;;;;;15.98;3.45;;;;;;;;;;5030393;28;20505;-67
2023/01/30 07:53:49;;;;;;;16.25;4.22;;;;;;;;;;5022400;28;20502;-70
2023/01/30 07:56:18;;;;;;;24.23;6.35;;;;;;;;;;5029964;28;20129;-70
2023/01/30 07:58:45;;;;;;;17.80;4.20;;;6.90;1.00;;;;;;5021232;28;20116;-70
2023/01/30 08:01:11;;;;;;;18.83;5.32;;;;;;;;;;5046221;28;20088;-69
2023/01/30 08:03:36;;;;;;;19.30;4.47;;;6.90;1.00;;;;;;5030040;28;20046;-71
2023/01/30 08:06:02;;;;;;;20.38;4.28;;;;;;;;;;5030424;28;20037;-70
2023/01/30 08:08:28;;;;;;;26.95;4.75;;;;;;;;;;5031602;28;20038;-73
2023/01/30 08:10:54;;;;;;;15.57;4.57;;;;;;;;;;5027518;28;20068;-72
2023/01/30 08:13:20;;;;;;;28.50;6.15;;;;;;;;;;5024558;28;20049;-72
2023/01/30 08:15:46;;;;;;;16.83;4.10;;;;;;;;;;5013363;28;20077;-68
2023/01/30 08:18:12;;;;;;;13.85;4.07;;;;;;;;;;5031600;28;20099;-70
2023/01/30 08:20:39;;;;;;;18.98;4.35;;;;;;;;;;5019703;28;20045;-69
2023/01/30 08:23:05;;;;;;;19.50;4.10;;;;;;;;;;5022223;28;20040;-69
2023/01/30 08:25:31;;;;;;;18.60;4.65;;;7.20;1.00;;;;;;5020403;28;20037;-70
2023/01/30 08:27:59;;;;;;;23.80;4.18;;;7.20;1.00;;;;;;5038263;28;20048;-70
2023/01/30 08:30:24;;;;;;;20.45;4.00;;;7.10;1.00;;;;;;5024752;28;20112;-69
2023/01/30 08:32:50;;;;;;;16.35;3.33;;;7.10;1.00;;;;;;5028987;28;20049;-70
2023/01/30 08:35:16;;;;;;;17.10;3.72;;;;;;;;;;5024976;28;20087;-69
2023/01/30 08:37:42;;;;;;;17.38;5.03;;;7.20;1.00;;;;;;5024226;28;20045;-68
2023/01/30 08:40:09;;;;;;;17.70;4.20;;;7.40;1.00;;;;;;5029443;28;20124;-68
2023/01/30 08:42:35;;;;;;;12.38;4.25;;;7.30;1.00;;;;;;5024991;28;20045;-67
2023/01/30 08:45:01;;;;;;;20.73;6.65;;;;;;;;;;5024968;28;20103;-70
2023/01/30 08:47:27;;;;;;;10.23;3.20;;;;;;;;;;5030445;28;20045;-70
2023/01/30 08:49:53;;;;;;;18.80;4.40;;;;;;;;;;5031671;23;20810;-62
2023/01/30 08:52:20;;;;;;;28.25;5.22;;;;;;;;;;5020581;28;20045;-62
2023/01/30 08:54:46;;;;;;;27.38;6.68;;;7.30;1.00;;;;;;4992883;28;20141;-62
2023/01/30 08:57:13;;;;;;;20.00;4.40;;;;;;;;;;5016599;28;20045;-61
2023/01/30 08:59:39;;;;;;;15.80;4.43;;;;;;;;;;5009469;28;20507;-60
2023/01/30 09:02:06;;;;;;;15.38;3.70;;;;;;;;;;5009592;28;20046;-62
2023/01/30 09:04:32;;;;;;;12.00;3.85;;;;;;;;;;5010227;28;20037;-62
2023/01/30 09:06:58;;;;;;;27.88;4.70;;;;;;;;;;5008274;28;20099;-62
2023/01/30 09:09:24;;;;;;;21.10;4.95;;;;;;;;;;5019801;28;20699;-62
2023/01/30 09:11:50;;;;;;;21.10;4.57;;;;;;;;;;5014917;28;20451;-62
2023/01/30 09:14:18;;;;;;;19.17;4.65;;;;;;;;;;5009979;28;20120;-62
2023/01/30 09:16:54;;;;;;;20.95;4.45;;;7.70;1.00;;;;;;5009258;28;20042;-61
2023/01/30 09:19:21;;;;;;;17.48;4.10;;;;;;;;;;5009954;28;20038;-63
2023/01/30 09:21:48;;;;;;;13.93;4.32;;;7.70;1.00;;;;;;5007629;28;20044;-63
2023/01/30 09:24:14;;;;;;;18.27;4.90;;;7.60;1.00;;;;;;5022319;28;20052;-63
2023/01/30 09:26:43;;;;;;;13.10;3.05;;;7.60;1.00;;;;;;5008011;28;20033;-63
2023/01/30 09:29:09;;;;;;;17.77;3.33;;;;;;;;;;5009740;28;20492;-63
2023/01/30 09:31:35;;;;;;;17.77;3.97;;;;;;;;;;5009153;28;20157;-63
2023/01/30 09:34:01;;;;;;;23.45;6.60;;;;;;;;;;5009697;28;20041;-63
2023/01/30 09:36:27;;;;;;;21.30;4.85;;;;;;;;;;5008461;28;20045;-63
2023/01/30 09:38:53;;;;;;;21.02;4.97;;;7.70;1.00;;;;;;5009183;28;20116;-63
2023/01/30 09:41:28;;;;;;;24.88;4.85;;;;;;;;;;5009740;28;20224;-63
2023/01/30 09:44:31;;;;;;;18.27;4.38;;;7.60;1.00;;;;;;5008498;28;20048;-63
2023/01/30 09:47:02;;;;;;;24.58;4.70;;;;;;;;;;5007969;28;20104;-64
2023/01/30 09:49:48;;;;;;;28.52;6.03;;;7.70;1.00;;;;;;5009539;28;20045;-64
2023/01/30 09:52:34;;;;;;;29.45;4.53;;;;;;;;;;4993362;28;20479;-63
2023/01/30 09:55:17;;;;;;;17.17;4.18;;;8.40;1.00;;;;;;5011963;28;20077;-63
2023/01/30 09:57:46;;;;;;;15.90;4.20;;;7.90;1.00;;;;;;5010428;28;20045;-63
2023/01/30 10:00:17;;;;;;;15.38;2.88;;;;;;;;;;5013648;28;20045;-64
2023/01/30 10:02:56;;;;;;;16.25;4.53;;;7.30;1.00;;;;;;5012127;28;20563;-63
2023/01/30 10:05:34;;;;;;;14.23;4.32;;;8.20;1.00;;;;;;5013551;28;20074;-63
2023/01/30 10:08:00;;;;;;;16.48;4.13;;;;;;;;;;5012119;28;20121;-63
2023/01/30 10:10:59;;;;;;;15.43;4.03;;;7.60;1.00;;;;;;5013233;28;20052;-63
2023/01/30 10:13:33;;;;;;;21.10;4.75;;;;;;;;;;5003504;28;20483;-63
2023/01/30 10:16:02;;;;;;;15.93;4.03;;;;;;;;;;5013003;28;20042;-63
2023/01/30 10:18:38;;;;;;;32.17;6.13;;;;;;;;;;5013257;28;20041;-62
2023/01/30 10:21:12;;;;;;;20.77;5.15;;;;;;;;;;5011689;28;20049;-63
2023/01/30 10:23:46;;;;;;;21.77;5.00;;;;;;;;;;5085345;22;20042;-68
2023/01/30 10:26:18;;;;;;;25.40;5.07;;;8.60;1.00;;;;;;5034203;28;20048;-68
2023/01/30 10:28:54;;;;;;;14.35;3.97;;;;;;;;;;5038001;28;20520;-68
2023/01/30 10:31:22;;;;;;;23.77;5.95;;;;;;;;;;5020016;28;20096;-68
2023/01/30 10:33:56;;;;;;;26.77;4.93;;;;;;;;;;5018191;28;20038;-67
2023/01/30 10:36:42;;;;;;;25.08;6.72;;;;;;;;;;5030955;28;20056;-68
2023/01/30 10:39:24;;;;;;;18.00;4.60;;;;;;;;;;5021024;28;20498;-67
2023/01/30 10:41:59;;;;;;;22.30;4.93;;;;;;;;;;5020015;28;20049;-68
2023/01/30 10:44:25;;;;;;;14.18;4.78;;;6.90;1.00;;;;;;5030497;28;20049;-67
2023/01/30 10:46:57;;;;;;;9.13;3.13;;;;;;;;;;5029733;28;20038;-67
2023/01/30 10:49:40;;;;;;;8.35;2.00;;;7.00;1.00;;;;;;5022589;28;20493;-67
2023/01/30 10:52:26;;;;;;;11.75;2.67;;;;;;;;;;5020317;28;20359;-67
2023/01/30 10:54:55;;;;;;;8.18;2.05;;;;;;;;;;5023576;28;20486;-67
2023/01/30 10:57:39;;;;;;;10.45;2.35;;;;;;;;;;5033013;28;20052;-67
2023/01/30 11:00:14;;;;;;;14.15;3.33;;;6.90;1.00;;;;;;5021892;28;20556;-67
2023/01/30 11:02:40;;;;;;;13.25;2.88;;;;;;;;;;5026611;28;20045;-67
2023/01/30 11:05:26;;;;;;;14.82;3.85;;;;;;;;;;5025426;28;20042;-67
2023/01/30 11:07:52;;;;;;;19.75;3.95;;;;;;;;;;5023838;28;20046;-67
2023/01/30 11:10:38;;;;;;;11.80;3.42;;;;;;;;;;5037730;22;20045;-59
2023/01/30 11:13:12;;;;;;;12.75;3.95;;;;;;;;;;5024908;28;20042;-55
2023/01/30 11:15:40;;;;;;;18.77;4.88;;;7.20;1.00;;;;;;5034118;28;20042;-55
2023/01/30 11:18:06;;;;;;;11.60;2.85;;;6.60;1.00;;;;;;5030442;28;20132;-55
2023/01/30 11:20:38;;;;;;;15.82;3.55;;;;;;;;;;5030391;28;20136;-52
2023/01/30 11:23:05;;;;;;;16.08;2.75;;;;;;;;;;5030863;28;20034;-54
2023/01/30 11:25:32;;;;;;;6.35;1.60;;;;;;;;;;5052584;23;20041;-57
2023/01/30 11:27:58;;;;;;;7.57;1.60;;;;;;;;;;5050697;28;20040;-60
2023/01/30 11:30:27;;;;;;;6.95;1.95;;;;;;;;;;5037001;28;20037;-60
2023/01/30 11:33:14;;;;;;;8.18;1.92;;;5.80;1.00;;;;;;5034826;28;20052;-60
2023/01/30 11:35:56;;;;;;;11.73;2.42;;;6.30;1.00;;;;;;5031704;28;20045;-60
2023/01/30 11:38:26;;;;;;;8.50;2.78;;;;;;;;;;5031720;28;20045;-60
2023/01/30 11:41:24;;;;;;;12.85;2.53;;;5.60;1.00;;;;;;5030969;28;20044;-61
2023/01/30 11:43:50;;;;;;;18.63;4.28;;;6.00;1.00;;;;;;4986671;28;20049;-59
2023/01/30 11:46:20;;;;;;;10.93;2.47;;;;;;;;;;5030993;28;20045;-61
2023/01/30 11:48:52;;;;;;;12.73;2.85;;;;;;;;;;5121530;22;20117;-61
2023/01/30 11:51:19;;;;;;;11.32;2.80;;;;;;;;;;5046221;28;20498;-57
2023/01/30 11:53:50;;;;;;;16.58;4.20;;;;;;;;;;5045323;28;20033;-58
2023/01/30 11:56:28;;;;;;;23.60;3.97;;;;;;;;;;5045424;28;20053;-59
2023/01/30 11:58:57;;;;;;;15.25;3.88;;;7.40;1.00;;;;;;5035153;28;20285;-56
2023/01/30 12:03:54;;;;;;;16.35;4.07;;;;;;;;;;5075466;22;20057;-54
2023/01/30 12:06:25;;;;;;;20.08;4.50;;;;;;;;;;5045822;28;20038;-54
2023/01/30 12:08:53;;;;;;;14.75;3.38;;;;;;;;;;5018294;28;20038;-54
2023/01/30 12:11:41;;;;;;;11.35;2.85;;;8.10;1.00;;;;;;5024754;28;20146;-55
2023/01/30 12:14:13;;;;;;;13.00;2.85;;;;;;;;;;5029162;28;20068;-54
2023/01/30 12:16:54;;;;;;;14.63;3.38;;;;;;;;;;5029006;28;20491;-55
2023/01/30 12:19:27;;;;;;;13.48;2.58;;;;;;;;;;5029157;28;20136;-54
2023/01/30 12:22:39;;;;;;;18.05;3.70;;;7.80;1.00;;;;;;5029741;28;20099;-55
2023/01/30 12:25:11;;;;;;;6.85;1.58;;;;;;;;;;4991550;28;20046;-54
2023/01/30 12:27:56;;;;;;;8.25;2.40;;;;;;;;;;5030576;28;20037;-55
2023/01/30 12:30:41;;;;;;;13.52;3.75;;;;;;;;;;5022533;28;20437;-55
2023/01/30 12:33:11;;;;;;;13.52;3.08;;;8.50;1.00;;;;;;5028009;28;20057;-51
2023/01/30 12:36:01;;;;;;;14.30;3.67;;;;;;;;;;5030488;28;20124;-54
2023/01/30 12:38:27;;;;;;;12.70;3.10;;;;;;;;;;5028807;28;20041;-55
2023/01/30 12:41:04;;;;;;;16.38;3.60;;;;;;;;;;5028708;28;20113;-55
2023/01/30 12:43:40;;;;;;;13.77;2.90;;;;;;;;;;5028578;28;20506;-55
2023/01/30 12:46:21;;;;;;;15.20;3.58;;;;;;;;;;5029843;28;20077;-53
2023/01/30 12:49:15;;;;;;;13.20;3.72;;;9.30;1.00;;;;;;5028897;28;20041;-55
2023/01/30 12:52:00;;;;;;;17.70;4.45;;;;;;;;;;5023864;28;20097;-54
2023/01/30 12:54:34;;;;;;;14.85;3.80;;;;;;;;;;5030110;28;20128;-54
2023/01/30 12:57:15;;;;;;;12.73;2.88;;;12.10;1.00;;;;;;5029404;28;20056;-54
2023/01/30 13:00:04;;;;;;;24.80;4.45;;;13.00;1.00;;;;;;5029801;28;20041;-54
2023/01/30 13:02:49;;;;;;;17.98;4.70;;;13.10;1.00;;;;;;5029257;28;20122;-54
2023/01/30 13:05:20;;;;;;;13.93;3.73;;;;;;;;;;5029736;28;20045;-54
2023/01/30 13:07:49;;;;;;;14.77;3.95;;;;;;;;;;5028256;28;20045;-54
2023/01/30 13:10:32;;;;;;;16.23;4.75;;;13.10;1.00;;;;;;5029029;28;20083;-54
2023/01/30 13:13:34;;;;;;;27.00;5.97;;;;;;;;;;5028958;28;20045;-54
2023/01/30 13:16:30;;;;;;;24.52;5.32;;;12.90;1.00;;;;;;4933048;29;20473;-52
2023/01/30 13:18:59;;;;;;;18.70;4.68;;;;;;;;;;5029045;28;20090;-54
2023/01/30 13:22:04;;;;;;;23.30;5.88;;;11.60;1.00;;;;;;5027962;28;20073;-54
2023/01/30 13:24:33;;;;;;;18.58;4.65;;;;;;;;;;5024353;28;20406;-54
2023/01/30 13:27:00;;;;;;;34.13;7.22;;;;;;;;;;5028809;28;20401;-54
2023/01/30 13:29:36;;;;;;;21.30;5.60;;;10.70;1.00;;;;;;5028163;28;20069;-51
2023/01/30 13:32:05;;;;;;;22.60;5.63;;;;;;;;;;5027383;28;20040;-51
2023/01/30 13:34:35;;;;;;;21.88;6.03;;;9.30;1.00;;;;;;5029331;28;20037;-51
2023/01/30 13:37:11;;;;;;;20.02;5.32;;;;;;;;;;5027409;28;20045;-53
2023/01/30 13:39:41;;;;;;;25.40;5.30;;;;;;;;;;5028834;28;20039;-50
2023/01/30 13:42:12;;;;;;;23.60;4.97;;;;;;;;;;5028531;28;20116;-52
2023/01/30 13:44:40;;;;;;;19.85;4.85;;;;;;;;;;5029345;28;20034;-50
2023/01/30 13:47:24;;;;;;;28.35;6.25;;;;;;;;;;5029172;28;20040;-51
2023/01/30 13:49:56;;;;;;;18.83;4.20;;;11.50;1.00;;;;;;5028912;28;20040;-51
2023/01/30 13:52:40;;;;;;;24.70;6.00;;;12.80;1.00;;;;;;5019807;28;20506;-51
2023/01/30 13:55:25;;;;;;;18.95;4.40;;;;;;;;;;5028813;28;20037;-52
2023/01/30 13:57:51;;;;;;;;;;;;;;;;;;5028549;28;20045;-53
2023/01/30 14:00:20;;;;;;;18.70;5.68;;;11.30;1.00;;;;;;5028676;28;20392;-54
2023/01/30 14:03:05;;;;;;;18.25;5.25;;;;;;;;;;5027187;28;20437;-53
2023/01/30 14:05:57;;;;;;;24.35;4.47;;;11.30;1.00;;;;;;5023839;28;20043;-54
2023/01/30 14:08:25;;;;;;;21.65;5.63;;;;;;;;;;5021452;28;20529;-52
2023/01/30 14:10:51;;;;;;;16.45;4.53;;;10.80;1.00;;;;;;5028734;28;20534;-52
2023/01/30 14:13:17;;;;;;;17.70;3.25;;;10.20;1.00;;;;;;5028543;28;20376;-54
2023/01/30 14:15:54;;;;;;;22.17;5.28;;;;;;;;;;5028885;28;20076;-54
2023/01/30 14:18:27;;;;;;;22.48;5.03;;;10.30;1.00;;;;;;5021224;28;20052;-54
2023/01/30 14:21:11;;;;;;;22.15;4.88;;;;;;;;;;5027542;28;20033;-54
2023/01/30 14:23:37;;;;;;;22.25;4.85;;;;;;;;;;5024387;28;20941;-53
2023/01/30 14:26:03;;;;;;;18.50;4.57;;;;;;;;;;5010638;28;20037;-54
2023/01/30 14:28:29;;;;;;;23.45;6.28;;;;;;;;;;5028924;28;20037;-54